Time,TemperatureF,DewpointF,PressureIn,WindDirection,WindDirectionDegrees,WindSpeedMPH,WindSpeedGustMPH,Humidity,HourlyPrecipIn,Conditions,Clouds,dailyrainin,SoftwareType,DateUTC
2013-01-27 00:12:00,14.5,1.0,30.23,WSW,246,4.0,7.0,54,0.00,,,0.00,weatherlink.com 1.10,2013-01-27 05:12:00,
2013-01-27 00:27:00,14.5,1.0,30.23,West,277,2.0,5.0,54,0.00,,,0.00,weatherlink.com 1.10,2013-01-27 05:27:00,
2013-01-27 00:42:00,14.6,1.0,30.24,West,281,1.0,11.0,54,0.00,,,0.00,weatherlink.com 1.10,2013-01-27 05:42:00,
2013-01-27 00:57:00,14.5,1.0,30.24,West,271,2.0,8.0,54,0.00,,,0.00,weatherlink.com 1.10,2013-01-27 05:57:00,
2013-01-27 01:12:00,14.4,1.0,30.25,NE,41,3.0,9.0,55,0.00,,,0.00,weatherlink.com 1.10,2013-01-27 06:12:00,
2013-01-27 01:27:00,14.2,1.0,30.26,NNE,28,2.0,4.0,56,0.00,,,0.00,weatherlink.com 1.10,2013-01-27 06:27:00,
2013-01-27 01:43:00,14.1,1.0,30.26,WNW,289,5.0,9.0,56,0.00,,,0.00,weatherlink.com 1.10,2013-01-27 06:43:00,
2013-01-27 01:58:00,14.0,1.0,30.27,WNW,294,4.0,5.0,57,0.00,,,0.00,weatherlink.com 1.10,2013-01-27 06:58:00,
2013-01-27 02:28:00,13.9,2.0,30.27,WNW,289,2.0,5.0,58,0.00,,,0.00,weatherlink.com 1.10,2013-01-27 07:28:00,
2013-01-27 02:43:00,13.8,1.0,30.27,WNW,288,2.0,5.0,58,0.00,,,0.00,weatherlink.com 1.10,2013-01-27 07:43:00,
2013-01-27 02:58:00,13.8,2.0,30.27,NW,304,0.0,7.0,59,0.00,,,0.00,weatherlink.com 1.10,2013-01-27 07:58:00,
2013-01-27 03:13:00,13.8,2.0,30.28,NNE,30,0.0,5.0,59,0.00,,,0.00,weatherlink.com 1.10,2013-01-27 08:13:00,
2013-01-27 03:28:00,13.8,2.0,30.28,West,260,3.0,8.0,59,0.00,,,0.00,weatherlink.com 1.10,2013-01-27 08:28:00,
2013-01-27 03:43:00,14.0,2.0,30.28,NNE,16,5.0,8.0,59,0.00,,,0.00,weatherlink.com 1.10,2013-01-27 08:43:00,
2013-01-27 03:58:00,14.2,2.0,30.28,NW,323,1.0,10.0,59,0.00,,,0.00,weatherlink.com 1.10,2013-01-27 08:58:00,
2013-01-27 04:13:00,14.2,2.0,30.29,West,275,1.0,6.0,59,0.00,,,0.00,weatherlink.com 1.10,2013-01-27 09:13:00,
2013-01-27 04:28:00,14.2,2.0,30.29,NW,325,3.0,7.0,59,0.00,,,0.00,weatherlink.com 1.10,2013-01-27 09:28:00,
2013-01-27 04:43:00,14.0,2.0,30.29,NNW,330,2.0,7.0,59,0.00,,,0.00,weatherlink.com 1.10,2013-01-27 09:43:00,
2013-01-27 04:58:00,13.9,2.0,30.30,WNW,295,2.0,4.0,60,0.00,,,0.00,weatherlink.com 1.10,2013-01-27 09:58:00,
2013-01-27 05:13:00,13.8,3.0,30.30,West,262,0.0,5.0,61,0.00,,,0.00,weatherlink.com 1.10,2013-01-27 10:13:00,
2013-01-27 05:28:00,13.3,2.0,30.31,WSW,255,1.0,4.0,62,0.00,,,0.00,weatherlink.com 1.10,2013-01-27 10:28:00,
2013-01-27 05:43:00,12.7,2.0,30.31,West,278,1.0,4.0,63,0.00,,,0.00,weatherlink.com 1.10,2013-01-27 10:43:00,
2013-01-27 05:58:00,12.4,2.0,30.31,West,266,0.0,3.0,64,0.00,,,0.00,weatherlink.com 1.10,2013-01-27 10:58:00,
2013-01-27 06:13:00,12.1,2.0,30.32,WNW,288,2.0,3.0,65,0.00,,,0.00,weatherlink.com 1.10,2013-01-27 11:13:00,
2013-01-27 06:28:00,11.8,2.0,30.32,WNW,284,0.0,2.0,66,0.00,,,0.00,weatherlink.com 1.10,2013-01-27 11:28:00,
2013-01-27 06:43:00,11.9,3.0,30.32,West,260,0.0,6.0,66,0.00,,,0.00,weatherlink.com 1.10,2013-01-27 11:43:00,
2013-01-27 06:58:00,11.9,3.0,30.33,West,262,1.0,4.0,66,0.00,,,0.00,weatherlink.com 1.10,2013-01-27 11:58:00,
2013-01-27 07:13:00,11.9,3.0,30.33,West,264,2.0,4.0,66,0.00,,,0.00,weatherlink.com 1.10,2013-01-27 12:13:00,
2013-01-27 07:28:00,12.2,3.0,30.34,WSW,256,0.0,4.0,66,0.00,,,0.00,weatherlink.com 1.10,2013-01-27 12:28:00,
2013-01-27 07:43:00,12.9,3.0,30.35,NNW,330,3.0,3.0,65,0.00,,,0.00,weatherlink.com 1.10,2013-01-27 12:43:00,
2013-01-27 07:58:00,13.5,3.0,30.35,West,276,1.0,2.0,64,0.00,,,0.00,weatherlink.com 1.10,2013-01-27 12:58:00,
2013-01-27 08:13:00,14.3,4.0,30.35,West,265,4.0,5.0,64,0.00,,,0.00,weatherlink.com 1.10,2013-01-27 13:13:00,
2013-01-27 08:28:00,15.1,4.0,30.36,NW,307,0.0,6.0,61,0.00,,,0.00,weatherlink.com 1.10,2013-01-27 13:28:00,
2013-01-27 08:43:00,16.0,4.0,30.36,NW,322,2.0,6.0,59,0.00,,,0.00,weatherlink.com 1.10,2013-01-27 13:43:00,
2013-01-27 08:59:00,17.1,4.0,30.37,WNW,298,6.0,12.0,56,0.00,,,0.00,weatherlink.com 1.10,2013-01-27 13:59:00,
2013-01-27 09:14:00,17.9,4.0,30.38,NW,305,5.0,9.0,55,0.00,,,0.00,weatherlink.com 1.10,2013-01-27 14:14:00,
2013-01-27 09:29:00,18.7,4.0,30.38,NW,323,3.0,9.0,53,0.00,,,0.00,weatherlink.com 1.10,2013-01-27 14:29:00,
2013-01-27 09:44:00,19.9,4.0,30.38,West,273,3.0,10.0,50,0.00,,,0.00,weatherlink.com 1.10,2013-01-27 14:44:00,
2013-01-27 09:59:00,20.8,3.0,30.38,NW,317,4.0,8.0,47,0.00,,,0.00,weatherlink.com 1.10,2013-01-27 14:59:00,
2013-01-27 10:14:00,21.7,4.0,30.38,NW,315,2.0,8.0,46,0.00,,,0.00,weatherlink.com 1.10,2013-01-27 15:14:00,
2013-01-27 10:29:00,22.5,4.0,30.38,NW,320,6.0,8.0,44,0.00,,,0.00,weatherlink.com 1.10,2013-01-27 15:29:00,
2013-01-27 10:44:00,23.4,4.0,30.38,NE,53,1.0,7.0,44,0.00,,,0.00,weatherlink.com 1.10,2013-01-27 15:44:00,
2013-01-27 10:59:00,24.4,4.0,30.38,NNW,335,2.0,8.0,41,0.00,,,0.00,weatherlink.com 1.10,2013-01-27 15:59:00,
2013-01-27 11:14:00,25.4,5.0,30.38,NNW,345,4.0,8.0,41,0.00,,,0.00,weatherlink.com 1.10,2013-01-27 16:14:00,
2013-01-27 11:29:00,26.2,5.0,30.38,NW,321,3.0,7.0,40,0.00,,,0.00,weatherlink.com 1.10,2013-01-27 16:29:00,
2013-01-27 11:44:00,27.1,4.0,30.38,NNW,333,3.0,8.0,38,0.00,,,0.00,weatherlink.com 1.10,2013-01-27 16:44:00,
2013-01-27 11:59:00,27.4,4.0,30.38,NNE,13,4.0,8.0,37,0.00,,,0.00,weatherlink.com 1.10,2013-01-27 16:59:00,
2013-01-27 12:14:00,28.0,4.0,30.37,NNW,337,2.0,9.0,36,0.00,,,0.00,weatherlink.com 1.10,2013-01-27 17:14:00,
2013-01-27 12:29:00,28.6,6.0,30.36,West,273,5.0,8.0,38,0.00,,,0.00,weatherlink.com 1.10,2013-01-27 17:29:00,
2013-01-27 12:44:00,28.7,5.0,30.36,WNW,291,2.0,11.0,36,0.00,,,0.00,weatherlink.com 1.10,2013-01-27 17:44:00,
2013-01-27 12:59:00,28.9,4.0,30.36,NW,309,3.0,8.0,34,0.00,,,0.00,weatherlink.com 1.10,2013-01-27 17:59:00,
2013-01-27 13:14:00,29.7,6.0,30.36,NNW,336,6.0,7.0,36,0.00,,,0.00,weatherlink.com 1.10,2013-01-27 18:14:00,
2013-01-27 13:29:00,29.9,4.0,30.36,North,360,1.0,8.0,33,0.00,,,0.00,weatherlink.com 1.10,2013-01-27 18:29:00,
2013-01-27 13:44:00,30.0,4.0,30.36,NW,314,2.0,10.0,33,0.00,,,0.00,weatherlink.com 1.10,2013-01-27 18:44:00,
2013-01-27 13:59:00,30.3,4.0,30.35,NE,55,3.0,10.0,32,0.00,,,0.00,weatherlink.com 1.10,2013-01-27 18:59:00,
2013-01-27 14:15:00,30.5,4.0,30.36,North,8,3.0,7.0,32,0.00,,,0.00,weatherlink.com 1.10,2013-01-27 19:15:00,
2013-01-27 14:30:00,31.2,4.0,30.36,NW,315,3.0,8.0,31,0.00,,,0.00,weatherlink.com 1.10,2013-01-27 19:30:00,
2013-01-27 14:45:00,30.9,3.0,30.36,NNW,336,3.0,6.0,31,0.00,,,0.00,weatherlink.com 1.10,2013-01-27 19:45:00,
2013-01-27 15:00:00,31.2,5.0,30.36,NNW,337,2.0,5.0,33,0.00,,,0.00,weatherlink.com 1.10,2013-01-27 20:00:00,
2013-01-27 15:15:00,31.3,3.0,30.35,NE,34,2.0,7.0,30,0.00,,,0.00,weatherlink.com 1.10,2013-01-27 20:15:00,
2013-01-27 15:30:00,31.3,4.0,30.36,NNW,328,2.0,4.0,31,0.00,,,0.00,weatherlink.com 1.10,2013-01-27 20:30:00,
2013-01-27 15:45:00,31.2,3.0,30.36,NW,325,1.0,7.0,30,0.00,,,0.00,weatherlink.com 1.10,2013-01-27 20:45:00,
2013-01-27 16:00:00,31.2,3.0,30.36,NNW,343,0.0,3.0,30,0.00,,,0.00,weatherlink.com 1.10,2013-01-27 21:00:00,
2013-01-27 16:15:00,31.2,3.0,30.36,SW,236,1.0,4.0,30,0.00,,,0.00,weatherlink.com 1.10,2013-01-27 21:15:00,
2013-01-27 16:30:00,30.8,3.0,30.37,NNW,343,1.0,5.0,30,0.00,,,0.00,weatherlink.com 1.10,2013-01-27 21:30:00,
2013-01-27 16:45:00,29.3,2.0,30.37,NNE,25,0.0,3.0,31,0.00,,,0.00,weatherlink.com 1.10,2013-01-27 21:45:00,
2013-01-27 17:00:00,28.1,2.0,30.38,WNW,298,1.0,4.0,33,0.00,,,0.00,weatherlink.com 1.10,2013-01-27 22:00:00,
2013-01-27 17:15:00,27.5,2.0,30.39,WSW,255,0.0,2.0,34,0.00,,,0.00,weatherlink.com 1.10,2013-01-27 22:15:00,
2013-01-27 17:30:00,26.9,3.0,30.39,West,265,0.0,1.0,35,0.00,,,0.00,weatherlink.com 1.10,2013-01-27 22:30:00,
2013-01-27 17:45:00,26.7,2.0,30.40,West,278,0.0,3.0,35,0.00,,,0.00,weatherlink.com 1.10,2013-01-27 22:45:00,
2013-01-27 18:00:00,26.1,3.0,30.41,West,269,0.0,1.0,37,0.00,,,0.00,weatherlink.com 1.10,2013-01-27 23:00:00,
2013-01-27 18:15:00,25.4,2.0,30.41,West,281,0.0,1.0,37,0.00,,,0.00,weatherlink.com 1.10,2013-01-27 23:15:00,
2013-01-27 18:30:00,23.6,3.0,30.42,West,281,0.0,0.0,41,0.00,,,0.00,weatherlink.com 1.10,2013-01-27 23:30:00,
2013-01-27 18:45:00,22.9,3.0,30.41,West,281,0.0,1.0,42,0.00,,,0.00,weatherlink.com 1.10,2013-01-27 23:45:00,
2013-01-27 19:00:00,22.2,3.0,30.42,West,281,0.0,0.0,44,0.00,,,0.00,weatherlink.com 1.10,2013-01-28 00:00:00,
2013-01-27 19:15:00,20.9,4.0,30.43,West,281,0.0,0.0,48,0.00,,,0.00,weatherlink.com 1.10,2013-01-28 00:15:00,
2013-01-27 19:30:00,20.2,3.0,30.43,West,281,0.0,0.0,47,0.00,,,0.00,weatherlink.com 1.10,2013-01-28 00:30:00,
2013-01-27 19:45:00,19.6,7.0,30.44,West,281,0.0,0.0,57,0.00,,,0.00,weatherlink.com 1.10,2013-01-28 00:45:00,
2013-01-27 20:00:00,19.0,3.0,30.44,West,281,0.0,0.0,50,0.00,,,0.00,weatherlink.com 1.10,2013-01-28 01:00:00,
2013-01-27 20:15:00,17.9,4.0,30.43,West,281,0.0,0.0,55,0.00,,,0.00,weatherlink.com 1.10,2013-01-28 01:15:00,
2013-01-27 20:30:00,17.5,5.0,30.43,WSW,242,0.0,0.0,58,0.00,,,0.00,weatherlink.com 1.10,2013-01-28 01:30:00,
2013-01-27 20:45:00,17.5,5.0,30.43,WSW,242,0.0,0.0,58,0.00,,,0.00,weatherlink.com 1.10,2013-01-28 01:45:00,
2013-01-27 21:00:00,17.0,5.0,30.43,WSW,240,0.0,0.0,60,0.00,,,0.00,weatherlink.com 1.10,2013-01-28 02:00:00,
2013-01-27 21:15:00,17.7,5.0,30.43,WSW,255,0.0,1.0,57,0.00,,,0.00,weatherlink.com 1.10,2013-01-28 02:15:00,
2013-01-27 21:30:00,17.8,5.0,30.43,WSW,255,0.0,0.0,57,0.00,,,0.00,weatherlink.com 1.10,2013-01-28 02:30:00,
2013-01-27 21:45:00,17.2,6.0,30.44,WSW,255,0.0,1.0,62,0.00,,,0.00,weatherlink.com 1.10,2013-01-28 02:45:00,
2013-01-27 22:00:00,16.7,5.0,30.44,WSW,255,0.0,0.0,59,0.00,,,0.00,weatherlink.com 1.10,2013-01-28 03:00:00,
2013-01-27 22:15:00,16.5,5.0,30.44,WSW,255,0.0,1.0,62,0.00,,,0.00,weatherlink.com 1.10,2013-01-28 03:15:00,
2013-01-27 22:30:00,16.9,5.0,30.44,West,266,0.0,0.0,60,0.00,,,0.00,weatherlink.com 1.10,2013-01-28 03:30:00,
2013-01-27 22:45:00,17.4,5.0,30.45,West,263,0.0,1.0,58,0.00,,,0.00,weatherlink.com 1.10,2013-01-28 03:45:00,
2013-01-27 23:00:00,18.4,4.0,30.45,SW,218,0.0,1.0,54,0.00,,,0.00,weatherlink.com 1.10,2013-01-28 04:00:00,
2013-01-27 23:15:00,17.3,4.0,30.45,SW,218,0.0,0.0,57,0.00,,,0.00,weatherlink.com 1.10,2013-01-28 04:15:00,
2013-01-27 23:30:00,17.0,5.0,30.46,SW,217,0.0,0.0,60,0.00,,,0.00,weatherlink.com 1.10,2013-01-28 04:30:00,
2013-01-27 23:45:00,16.6,5.0,30.45,SW,218,0.0,0.0,60,0.00,,,0.00,weatherlink.com 1.10,2013-01-28 04:45:00,